Главная страница
METAR-TAF:

METAR-TAF

Аэропорты :

Вардё, Норвегия

широта: 70-21N, долгота: 031-03E, высота над уровнем моря: 12 м

Текущие метеонаблюдения

Эта сводка был подготовлена 59 минут назад, в 16:50 UTC
Ветер 26 Узел от северо-западный
Температура -5°C
Влажность 86%
Давление 999 hPa
Видимость 10 км и более
Отдельные облака на высоте 2000 фута
ливни в окрестностях

METAR: ENSS 281650Z 31026KT 9999 VCSH SCT020 M05/M07 Q0999 RMK WIND 500FT 31026KT

Время: 19:49 (17:49 UTC)


TAF: отсутствует

Метеонаблюдения и прогнозы для более 4000 аэропортов (сводки METAR и TAF).

Имеющиеся станции представлены на карте желтыми и красными точками.

Чтобы увидеть название станции, наведите на нее мышь.

Затем щелкните, чтобы увидеть метеонаблюдения и метеопрогнозы.

Управление картой: чтобы увеличить масштаб, щелкните зеленые кнопки с черным крестиком; чтобы уменьшить масштаб, щелкните зеленую кнопку с тире; для просмотра соседних карт щелкайте зеленые стрелки.


METAR-TAF: